createdAt,value
2019-03-18T00:00:02.497Z,34.67
2019-03-18T00:00:41.056Z,35.52
2019-03-18T00:01:19.568Z,35.15
2019-03-18T00:01:58.356Z,36.42
2019-03-18T00:02:36.886Z,35.00
2019-03-18T00:03:15.784Z,37.67
2019-03-18T00:03:54.692Z,35.80
2019-03-18T00:04:34.056Z,37.10
2019-03-18T00:05:13.343Z,36.70
2019-03-18T00:05:52.443Z,38.83
2019-03-18T00:06:31.720Z,39.00
2019-03-18T00:07:10.800Z,35.75
2019-03-18T00:07:49.352Z,36.50
2019-03-18T00:08:28.293Z,37.53
2019-03-18T00:09:08.703Z,38.58
2019-03-18T00:09:47.684Z,39.15
2019-03-18T00:10:26.689Z,37.90
2019-03-18T00:11:05.859Z,39.92
2019-03-18T00:11:45.225Z,38.98
2019-03-18T00:12:24.329Z,38.88
2019-03-18T00:13:03.009Z,39.00
2019-03-18T00:13:41.612Z,40.50
2019-03-18T00:14:21.073Z,42.88
2019-03-18T00:15:01.413Z,41.95
2019-03-18T00:15:39.865Z,38.88
2019-03-18T00:16:18.992Z,41.83
2019-03-18T00:16:58.225Z,38.75
2019-03-18T00:17:37.450Z,41.02
2019-03-18T00:18:16.413Z,40.58
2019-03-18T00:18:54.862Z,39.95
2019-03-18T00:19:33.577Z,40.50
2019-03-18T00:20:12.153Z,40.35
2019-03-18T00:20:51.504Z,40.63
2019-03-18T00:21:30.114Z,40.80
2019-03-18T00:22:09.088Z,41.58
2019-03-18T00:22:48.107Z,40.10
2019-03-18T00:23:27.389Z,40.33
2019-03-18T00:24:06.500Z,40.77
2019-03-18T00:24:45.725Z,42.00
2019-03-18T00:25:24.987Z,41.15
2019-03-18T00:26:03.800Z,41.88
2019-03-18T00:26:42.346Z,43.28
2019-03-18T00:27:20.858Z,39.80
2019-03-18T00:27:59.701Z,42.50
2019-03-18T00:28:39.095Z,41.20
2019-03-18T00:29:17.746Z,44.17
2019-03-18T00:29:56.955Z,40.43
2019-03-18T00:30:35.950Z,41.68
2019-03-18T00:31:15.422Z,37.10
2019-03-18T00:31:54.794Z,38.70
2019-03-18T00:32:33.348Z,39.27
2019-03-18T00:33:11.825Z,37.23
2019-03-18T00:33:50.691Z,39.23
2019-03-18T00:34:29.633Z,38.90
2019-03-18T00:35:08.734Z,39.45
2019-03-18T00:35:47.248Z,40.07
2019-03-18T00:36:26.179Z,39.80
2019-03-18T00:37:05.274Z,38.20
2019-03-18T00:37:43.798Z,40.43
2019-03-18T00:38:22.944Z,38.87
2019-03-18T00:39:01.500Z,39.25
2019-03-18T00:39:40.488Z,39.40
2019-03-18T00:40:19.795Z,39.88
2019-03-18T00:40:58.875Z,39.47
2019-03-18T00:41:37.824Z,39.20
2019-03-18T00:42:17.414Z,39.18
2019-03-18T00:42:56.688Z,38.23
2019-03-18T00:43:35.779Z,39.40
2019-03-18T00:44:14.249Z,39.60
2019-03-18T00:44:52.752Z,38.30
2019-03-18T00:45:31.875Z,37.33
2019-03-18T00:46:10.491Z,38.40
2019-03-18T00:46:49.458Z,39.87
2019-03-18T00:47:28.447Z,37.67
2019-03-18T00:48:06.985Z,38.15
2019-03-18T00:48:46.133Z,40.43
2019-03-18T00:49:24.675Z,38.83
2019-03-18T00:50:03.374Z,38.60
2019-03-18T00:50:42.773Z,35.87
2019-03-18T00:51:21.593Z,37.50
2019-03-18T00:52:00.568Z,39.75
2019-03-18T00:52:39.141Z,37.43
2019-03-18T00:53:17.635Z,39.00
2019-03-18T00:53:56.889Z,39.30
2019-03-18T00:54:35.623Z,37.38
2019-03-18T00:55:14.093Z,35.80
2019-03-18T00:55:52.610Z,38.50
2019-03-18T00:56:31.190Z,38.10
2019-03-18T00:57:10.304Z,38.63
2019-03-18T00:57:49.386Z,37.20
2019-03-18T00:58:28.584Z,36.47
2019-03-18T00:59:07.769Z,37.87
2019-03-18T00:59:46.671Z,37.23
2019-03-18T01:00:27.157Z,38.63
2019-03-18T01:01:05.661Z,37.77
2019-03-18T01:01:44.143Z,37.47
2019-03-18T01:02:22.731Z,37.77
2019-03-18T01:03:01.752Z,38.70
2019-03-18T01:03:40.988Z,37.27
2019-03-18T01:04:20.114Z,37.20
2019-03-18T01:04:59.459Z,38.47
2019-03-18T01:05:38.638Z,37.17
2019-03-18T01:06:17.732Z,36.00
2019-03-18T01:06:56.330Z,37.67
2019-03-18T01:07:34.830Z,36.37
2019-03-18T01:08:13.514Z,38.07
2019-03-18T01:08:52.596Z,35.83
2019-03-18T01:09:31.667Z,38.07
2019-03-18T01:10:11.873Z,36.38
2019-03-18T01:10:51.021Z,35.80
2019-03-18T01:11:30.581Z,36.60
2019-03-18T01:12:09.479Z,38.23
2019-03-18T01:12:48.776Z,37.30
2019-03-18T01:13:27.391Z,37.40
2019-03-18T01:14:05.963Z,36.97
2019-03-18T01:14:45.111Z,38.63
2019-03-18T01:15:28.246Z,37.87
2019-03-18T01:16:04.138Z,37.67
2019-03-18T01:16:43.079Z,38.40
2019-03-18T01:17:22.174Z,37.13
2019-03-18T01:18:01.389Z,35.93
2019-03-18T01:18:40.664Z,36.20
2019-03-18T01:19:20.103Z,36.20
2019-03-18T01:19:59.399Z,36.73
2019-03-18T01:20:38.734Z,37.40
2019-03-18T01:21:17.311Z,38.35
2019-03-18T01:21:55.789Z,36.73
2019-03-18T01:22:34.439Z,37.10
2019-03-18T01:23:13.195Z,35.80
2019-03-18T01:23:51.674Z,36.23
2019-03-18T01:24:30.113Z,37.47
2019-03-18T01:25:09.318Z,36.53
2019-03-18T01:25:47.774Z,38.27
2019-03-18T01:26:26.211Z,38.77
2019-03-18T01:27:04.794Z,38.27
2019-03-18T01:27:43.267Z,36.40
2019-03-18T01:28:22.274Z,37.30
2019-03-18T01:29:01.445Z,36.77
2019-03-18T01:29:41.058Z,35.53
2019-03-18T01:30:20.439Z,37.23
2019-03-18T01:30:59.824Z,37.17
2019-03-18T01:31:38.860Z,35.10
2019-03-18T01:32:17.977Z,36.00
2019-03-18T01:32:57.174Z,37.10
2019-03-18T01:33:35.928Z,36.03
2019-03-18T01:34:14.526Z,33.25
2019-03-18T01:34:54.028Z,35.37
2019-03-18T01:35:33.206Z,36.67
2019-03-18T01:36:11.671Z,34.15
2019-03-18T01:36:51.166Z,34.00
2019-03-18T01:37:30.650Z,34.70
2019-03-18T01:38:09.189Z,32.33
2019-03-18T01:38:47.652Z,34.07
2019-03-18T01:39:26.868Z,35.52
2019-03-18T01:40:05.559Z,35.43
2019-03-18T01:40:44.611Z,31.67
2019-03-18T01:41:23.321Z,32.43
2019-03-18T01:42:02.474Z,33.00
2019-03-18T01:42:40.966Z,33.23
2019-03-18T01:43:19.678Z,34.67
2019-03-18T01:43:58.633Z,34.23
2019-03-18T01:44:38.070Z,34.17
2019-03-18T01:45:16.573Z,33.80
2019-03-18T01:45:55.315Z,31.90
2019-03-18T01:46:34.188Z,34.27
2019-03-18T01:47:13.341Z,33.70
2019-03-18T01:47:52.318Z,32.20
2019-03-18T01:48:31.515Z,32.50
2019-03-18T01:49:10.493Z,33.33
2019-03-18T01:49:49.088Z,34.13
2019-03-18T01:50:27.643Z,31.67
2019-03-18T01:51:06.160Z,33.67
2019-03-18T01:51:45.035Z,35.00
2019-03-18T01:52:24.994Z,33.37
2019-03-18T01:53:04.077Z,31.80
2019-03-18T01:53:43.206Z,33.47
2019-03-18T01:54:22.315Z,33.70
2019-03-18T01:55:01.585Z,32.53
2019-03-18T01:55:40.769Z,32.83
2019-03-18T01:56:19.768Z,33.00
2019-03-18T01:56:58.332Z,33.93
2019-03-18T01:57:37.019Z,33.40
2019-03-18T01:58:15.772Z,35.57
2019-03-18T01:58:55.158Z,32.50
2019-03-18T01:59:34.314Z,33.33
2019-03-18T02:00:13.438Z,32.50
2019-03-18T02:00:53.150Z,32.20
2019-03-18T02:01:32.426Z,32.67
2019-03-18T02:02:11.107Z,33.13
2019-03-18T02:02:51.917Z,33.77
2019-03-18T02:03:30.043Z,33.40
2019-03-18T02:04:08.996Z,33.07
2019-03-18T02:04:47.427Z,32.90
2019-03-18T02:05:26.493Z,34.10
2019-03-18T02:06:05.791Z,32.17
2019-03-18T02:06:45.569Z,32.60
2019-03-18T02:07:24.649Z,34.37
2019-03-18T02:08:03.146Z,32.98
2019-03-18T02:08:42.176Z,32.70
2019-03-18T02:09:20.701Z,33.03
2019-03-18T02:09:59.679Z,33.30
2019-03-18T02:10:38.161Z,32.37
2019-03-18T02:11:16.970Z,31.90
2019-03-18T02:11:56.583Z,33.17
2019-03-18T02:12:35.557Z,31.20
2019-03-18T02:13:14.562Z,32.77
2019-03-18T02:13:53.515Z,30.77
2019-03-18T02:14:32.502Z,30.47
2019-03-18T02:15:11.754Z,32.17
2019-03-18T02:15:53.587Z,33.00
2019-03-18T02:16:30.271Z,32.50
2019-03-18T02:17:09.172Z,32.87
2019-03-18T02:17:48.063Z,31.67
2019-03-18T02:18:27.169Z,32.40
2019-03-18T02:19:06.204Z,30.80
2019-03-18T02:19:45.233Z,32.40
2019-03-18T02:20:27.457Z,34.20
2019-03-18T02:21:06.331Z,33.20
2019-03-18T02:21:45.429Z,32.13
2019-03-18T02:22:24.548Z,32.13
2019-03-18T02:23:03.581Z,32.40
2019-03-18T02:23:42.690Z,31.50
2019-03-18T02:24:21.477Z,32.30
2019-03-18T02:25:00.610Z,31.00
2019-03-18T02:25:39.082Z,31.40
2019-03-18T02:26:17.917Z,32.20
2019-03-18T02:26:57.485Z,30.40
2019-03-18T02:27:36.000Z,31.43
2019-03-18T02:28:14.541Z,31.77
2019-03-18T02:28:53.964Z,32.47
2019-03-18T02:29:32.480Z,30.73
2019-03-18T02:30:11.098Z,31.93
2019-03-18T02:30:50.299Z,33.90
2019-03-18T02:31:29.295Z,32.20
2019-03-18T02:32:08.046Z,32.93
2019-03-18T02:32:47.053Z,31.90
2019-03-18T02:33:26.229Z,31.13
2019-03-18T02:34:07.806Z,32.50
2019-03-18T02:34:47.104Z,31.17
2019-03-18T02:35:25.999Z,32.43
2019-03-18T02:36:05.167Z,29.97
2019-03-18T02:36:43.711Z,32.50
2019-03-18T02:37:22.208Z,33.53
2019-03-18T02:38:00.621Z,32.13
2019-03-18T02:38:39.510Z,32.07
2019-03-18T02:39:18.393Z,32.80
2019-03-18T02:39:57.692Z,33.23
2019-03-18T02:40:36.403Z,34.10
2019-03-18T02:41:15.541Z,33.50
2019-03-18T02:41:54.987Z,31.33
2019-03-18T02:42:34.001Z,32.40
2019-03-18T02:43:12.577Z,31.80
2019-03-18T02:43:51.107Z,32.43
2019-03-18T02:44:29.781Z,33.37
2019-03-18T02:45:08.861Z,32.17
2019-03-18T02:45:48.183Z,32.27
2019-03-18T02:46:27.182Z,33.00
2019-03-18T02:47:05.634Z,32.80
2019-03-18T02:47:44.241Z,31.90
2019-03-18T02:48:22.775Z,33.77
2019-03-18T02:49:01.213Z,33.43
2019-03-18T02:49:40.128Z,32.80
2019-03-18T02:50:19.105Z,32.17
2019-03-18T02:50:58.135Z,32.77
2019-03-18T02:51:37.412Z,31.60
2019-03-18T02:52:16.674Z,33.20
2019-03-18T02:52:55.430Z,32.83
2019-03-18T02:53:34.188Z,32.50
2019-03-18T02:54:13.199Z,32.80
2019-03-18T02:54:52.370Z,32.20
2019-03-18T02:55:30.863Z,32.30
2019-03-18T02:56:10.585Z,33.03
2019-03-18T02:56:49.468Z,33.10
2019-03-18T02:57:27.957Z,35.20
2019-03-18T02:58:07.115Z,33.70
2019-03-18T02:58:46.294Z,33.00
2019-03-18T02:59:24.751Z,34.13
2019-03-18T03:00:04.233Z,34.07
2019-03-18T03:00:42.710Z,33.93
2019-03-18T03:01:21.496Z,34.47
2019-03-18T03:02:00.321Z,35.30
2019-03-18T03:02:39.067Z,35.70
2019-03-18T03:03:18.074Z,36.63
2019-03-18T03:03:57.354Z,36.83
2019-03-18T03:04:35.792Z,36.73
2019-03-18T03:05:14.746Z,37.77
2019-03-18T03:05:53.225Z,36.80
2019-03-18T03:06:31.760Z,35.80
2019-03-18T03:07:10.564Z,37.10
2019-03-18T03:07:49.610Z,36.57
2019-03-18T03:08:29.014Z,34.80
2019-03-18T03:09:09.604Z,35.70
2019-03-18T03:09:48.585Z,36.10
2019-03-18T03:10:27.709Z,36.47
2019-03-18T03:11:06.980Z,35.77
2019-03-18T03:11:46.358Z,37.30
2019-03-18T03:12:25.815Z,38.43
2019-03-18T03:13:04.268Z,38.17
2019-03-18T03:13:42.890Z,38.10
2019-03-18T03:14:21.702Z,37.60
2019-03-18T03:15:01.113Z,36.47
2019-03-18T03:15:40.595Z,38.03
2019-03-18T03:16:26.617Z,36.40
2019-03-18T03:17:00.382Z,36.63
2019-03-18T03:17:39.410Z,36.83
2019-03-18T03:18:18.082Z,35.47
2019-03-18T03:18:57.275Z,34.17
2019-03-18T03:19:35.991Z,36.27
2019-03-18T03:20:14.551Z,33.93
2019-03-18T03:20:53.347Z,33.80
2019-03-18T03:21:32.153Z,34.60
2019-03-18T03:22:10.631Z,35.07
2019-03-18T03:22:49.676Z,33.90
2019-03-18T03:23:28.743Z,33.67
2019-03-18T03:24:07.244Z,34.13
2019-03-18T03:24:46.696Z,34.60
2019-03-18T03:25:25.452Z,33.60
2019-03-18T03:26:04.133Z,33.37
2019-03-18T03:26:42.631Z,34.83
2019-03-18T03:27:21.910Z,34.23
2019-03-18T03:28:00.530Z,34.87
2019-03-18T03:28:39.467Z,35.50
2019-03-18T03:29:18.649Z,33.70
2019-03-18T03:29:58.030Z,34.80
2019-03-18T03:30:37.290Z,34.90
2019-03-18T03:31:15.867Z,34.20
2019-03-18T03:31:54.767Z,33.33
2019-03-18T03:32:33.506Z,33.90
2019-03-18T03:33:12.539Z,34.60
2019-03-18T03:33:51.493Z,33.97
2019-03-18T03:34:30.289Z,33.67
2019-03-18T03:35:09.609Z,33.30
2019-03-18T03:35:48.144Z,34.03
2019-03-18T03:36:29.754Z,36.30
2019-03-18T03:37:08.402Z,33.80
2019-03-18T03:37:47.019Z,33.17
2019-03-18T03:38:25.480Z,33.77
2019-03-18T03:39:05.962Z,34.50
2019-03-18T03:39:44.456Z,33.90
2019-03-18T03:40:26.092Z,33.60
2019-03-18T03:41:04.686Z,33.57
2019-03-18T03:41:43.710Z,32.30
2019-03-18T03:42:22.729Z,32.53
2019-03-18T03:43:01.728Z,32.40
2019-03-18T03:43:40.688Z,32.97
2019-03-18T03:44:20.097Z,34.40
2019-03-18T03:44:59.616Z,32.27
2019-03-18T03:45:38.143Z,33.60
2019-03-18T03:46:17.093Z,32.40
2019-03-18T03:46:55.605Z,35.20
2019-03-18T03:47:34.495Z,35.80
2019-03-18T03:48:13.466Z,32.57
2019-03-18T03:48:52.451Z,35.93
2019-03-18T03:49:31.434Z,33.73
2019-03-18T03:50:10.185Z,34.00
2019-03-18T03:50:49.343Z,33.57
2019-03-18T03:51:28.122Z,34.07
2019-03-18T03:52:06.623Z,32.70
2019-03-18T03:52:45.701Z,34.77
2019-03-18T03:53:25.148Z,34.13
2019-03-18T03:54:04.998Z,33.93
2019-03-18T03:54:44.671Z,34.60
2019-03-18T03:55:24.723Z,33.40
2019-03-18T03:56:04.158Z,34.33
2019-03-18T03:56:43.203Z,31.70
2019-03-18T03:57:22.526Z,33.37
2019-03-18T03:58:01.498Z,33.27
2019-03-18T03:58:40.668Z,33.50
2019-03-18T03:59:19.894Z,33.57
2019-03-18T03:59:58.434Z,33.33
2019-03-18T04:00:36.917Z,34.07
2019-03-18T04:01:15.406Z,34.73
2019-03-18T04:01:54.711Z,32.83
2019-03-18T04:02:33.713Z,34.17
2019-03-18T04:03:12.674Z,34.47
2019-03-18T04:03:52.510Z,33.20
2019-03-18T04:04:31.579Z,35.07
2019-03-18T04:05:10.684Z,33.50
2019-03-18T04:05:49.179Z,33.00
2019-03-18T04:06:27.708Z,34.60
2019-03-18T04:07:06.418Z,31.67
2019-03-18T04:07:45.302Z,33.17
2019-03-18T04:08:24.527Z,34.50
2019-03-18T04:09:48.844Z,32.53
2019-03-18T04:10:27.341Z,34.07
2019-03-18T04:11:08.422Z,31.57
2019-03-18T04:11:46.368Z,33.60
2019-03-18T04:12:25.257Z,33.97
2019-03-18T04:13:04.466Z,32.90
2019-03-18T04:13:43.487Z,33.83
2019-03-18T04:14:23.046Z,33.10
2019-03-18T04:15:02.428Z,33.77
2019-03-18T04:15:40.888Z,32.80
2019-03-18T04:16:19.355Z,33.87
2019-03-18T04:17:02.254Z,33.27
2019-03-18T04:17:37.722Z,33.30
2019-03-18T04:18:16.460Z,33.80
2019-03-18T04:18:55.374Z,34.17
2019-03-18T04:19:34.322Z,33.80
2019-03-18T04:20:14.702Z,33.20
2019-03-18T04:20:53.349Z,34.47
2019-03-18T04:21:32.488Z,35.63
2019-03-18T04:22:11.546Z,33.33
2019-03-18T04:23:08.415Z,34.30
2019-03-18T04:23:47.295Z,34.90
2019-03-18T04:24:26.598Z,33.10
2019-03-18T04:25:05.125Z,32.80
2019-03-18T04:25:44.157Z,32.60
2019-03-18T04:26:23.384Z,34.13
2019-03-18T04:27:02.699Z,33.50
2019-03-18T04:27:41.139Z,34.23
2019-03-18T04:28:19.678Z,32.13
2019-03-18T04:28:58.212Z,32.23
2019-03-18T04:29:36.780Z,31.57
2019-03-18T04:30:15.789Z,32.37
2019-03-18T04:30:54.798Z,32.30
2019-03-18T04:31:33.738Z,33.10
2019-03-18T04:32:30.937Z,31.67
2019-03-18T04:33:10.672Z,33.63
2019-03-18T04:33:49.112Z,31.93
2019-03-18T04:34:27.788Z,33.03
2019-03-18T04:35:07.073Z,34.10
2019-03-18T04:35:46.224Z,32.50
2019-03-18T04:36:25.318Z,32.50
2019-03-18T04:37:04.157Z,32.93
2019-03-18T04:37:43.224Z,32.40
2019-03-18T04:38:22.704Z,32.87
2019-03-18T04:39:01.211Z,31.90
2019-03-18T04:39:39.813Z,32.87
2019-03-18T04:40:18.716Z,34.53
2019-03-18T04:40:57.807Z,32.57
2019-03-18T04:41:36.469Z,32.53
2019-03-18T04:42:15.575Z,31.97
2019-03-18T04:42:54.942Z,32.60
2019-03-18T04:43:34.008Z,32.10
2019-03-18T04:44:12.921Z,31.80
2019-03-18T04:44:51.423Z,31.40
2019-03-18T04:45:30.400Z,31.80
2019-03-18T04:46:08.900Z,32.43
2019-03-18T04:46:47.986Z,32.80
2019-03-18T04:47:27.408Z,32.77
2019-03-18T04:48:06.049Z,31.03
2019-03-18T04:48:45.025Z,33.33
2019-03-18T04:49:23.447Z,31.60
2019-03-18T04:50:01.914Z,32.47
2019-03-18T04:50:40.365Z,30.43
2019-03-18T04:51:19.074Z,30.97
2019-03-18T04:51:57.937Z,31.47
2019-03-18T04:52:37.157Z,32.10
2019-03-18T04:53:16.383Z,31.10
2019-03-18T04:53:55.485Z,30.80
2019-03-18T04:54:34.599Z,30.40
2019-03-18T04:55:14.015Z,31.23
2019-03-18T04:55:52.650Z,32.50
2019-03-18T04:56:31.114Z,32.30
2019-03-18T04:57:09.890Z,30.83
2019-03-18T04:57:48.722Z,32.00
2019-03-18T04:58:27.733Z,31.30
2019-03-18T04:59:06.839Z,31.20
2019-03-18T04:59:46.143Z,31.77
2019-03-18T05:00:25.305Z,30.43
2019-03-18T05:01:04.448Z,29.97
2019-03-18T05:01:43.537Z,30.70
2019-03-18T05:02:22.126Z,31.70
2019-03-18T05:03:00.627Z,30.53
2019-03-18T05:03:39.610Z,31.17
2019-03-18T05:04:18.785Z,32.20
2019-03-18T05:04:57.935Z,30.53
2019-03-18T05:05:37.151Z,31.90
2019-03-18T05:06:16.373Z,32.10
2019-03-18T05:06:55.520Z,29.60
2019-03-18T05:07:34.076Z,30.83
2019-03-18T05:08:12.925Z,30.87
2019-03-18T05:08:51.496Z,29.77
2019-03-18T05:09:30.387Z,31.27
2019-03-18T05:10:09.253Z,30.50
2019-03-18T05:10:48.550Z,31.37
2019-03-18T05:11:27.477Z,30.20
2019-03-18T05:12:24.808Z,31.93
2019-03-18T05:13:03.638Z,30.70
2019-03-18T05:13:42.800Z,30.17
2019-03-18T05:14:21.379Z,30.63
2019-03-18T05:15:00.356Z,32.20
2019-03-18T05:15:38.926Z,31.17
2019-03-18T05:16:18.151Z,31.83
2019-03-18T05:16:57.299Z,30.50
2019-03-18T05:17:36.607Z,30.30
2019-03-18T05:18:15.878Z,29.30
2019-03-18T05:18:55.090Z,30.80
2019-03-18T05:19:33.627Z,29.60
2019-03-18T05:20:12.801Z,30.20
2019-03-18T05:20:51.554Z,31.37
2019-03-18T05:21:30.673Z,28.97
2019-03-18T05:22:09.723Z,29.97
2019-03-18T05:22:48.932Z,29.90
2019-03-18T05:23:27.923Z,30.30
2019-03-18T05:24:07.415Z,31.90
2019-03-18T05:24:46.481Z,31.87
2019-03-18T05:25:25.024Z,31.30
2019-03-18T05:26:03.551Z,29.70
2019-03-18T05:26:42.704Z,30.33
2019-03-18T05:27:21.517Z,29.07
2019-03-18T05:28:00.578Z,29.13
2019-03-18T05:28:39.856Z,29.97
2019-03-18T05:29:18.984Z,30.03
2019-03-18T05:29:58.117Z,30.90
2019-03-18T05:30:36.627Z,32.20
2019-03-18T05:31:16.105Z,31.57
2019-03-18T05:31:54.557Z,30.50
2019-03-18T05:32:33.265Z,31.60
2019-03-18T05:33:12.115Z,30.97
2019-03-18T05:33:51.009Z,31.10
2019-03-18T05:34:30.234Z,31.07
2019-03-18T05:35:09.416Z,31.50
2019-03-18T05:35:48.647Z,30.73
2019-03-18T05:36:27.743Z,29.73
2019-03-18T05:37:06.770Z,32.60
2019-03-18T05:37:45.222Z,31.23
2019-03-18T05:38:23.731Z,31.20
2019-03-18T05:39:02.467Z,29.83
2019-03-18T05:39:41.484Z,30.40
2019-03-18T05:40:20.664Z,30.40
2019-03-18T05:40:59.592Z,30.90
2019-03-18T05:41:38.732Z,29.33
2019-03-18T05:42:17.195Z,30.20
2019-03-18T05:42:56.413Z,30.43
2019-03-18T05:43:34.971Z,30.03
2019-03-18T05:44:13.485Z,31.47
2019-03-18T05:44:52.457Z,32.57
2019-03-18T05:45:32.067Z,31.00
2019-03-18T05:46:11.112Z,30.83
2019-03-18T05:46:50.387Z,30.30
2019-03-18T05:47:39.208Z,30.53
2019-03-18T05:48:10.514Z,30.23
2019-03-18T05:48:49.834Z,31.50
2019-03-18T05:49:28.924Z,31.50
2019-03-18T05:50:07.743Z,31.10
2019-03-18T05:50:46.741Z,31.50
2019-03-18T05:51:25.754Z,30.43
2019-03-18T05:52:05.000Z,29.83
2019-03-18T05:52:43.464Z,29.33
2019-03-18T05:53:22.551Z,32.00
2019-03-18T05:54:01.767Z,30.20
2019-03-18T05:54:40.826Z,30.30
2019-03-18T05:55:19.653Z,29.53
2019-03-18T05:55:59.230Z,31.30
2019-03-18T05:56:38.294Z,31.40
2019-03-18T05:57:17.088Z,31.17
2019-03-18T05:57:55.616Z,30.50
2019-03-18T05:58:34.679Z,30.53
2019-03-18T05:59:13.423Z,30.77
2019-03-18T05:59:54.079Z,30.20
2019-03-18T06:00:32.934Z,32.50
2019-03-18T06:01:11.522Z,29.23
2019-03-18T06:01:50.640Z,29.87
2019-03-18T06:02:29.630Z,31.70
2019-03-18T06:03:11.293Z,31.53
2019-03-18T06:03:50.509Z,31.37
2019-03-18T06:04:31.100Z,28.87
2019-03-18T06:05:10.324Z,30.57
2019-03-18T06:05:49.538Z,29.63
2019-03-18T06:06:29.095Z,31.70
2019-03-18T06:07:08.461Z,29.93
2019-03-18T06:07:47.771Z,29.60
2019-03-18T06:08:26.239Z,30.67
2019-03-18T06:09:05.456Z,30.60
2019-03-18T06:09:44.231Z,31.00
2019-03-18T06:10:23.256Z,29.87
2019-03-18T06:11:02.797Z,30.07
2019-03-18T06:11:41.323Z,30.50
2019-03-18T06:12:21.069Z,28.13
2019-03-18T06:13:00.247Z,31.20
2019-03-18T06:13:38.773Z,29.70
2019-03-18T06:14:17.761Z,30.23
2019-03-18T06:14:56.956Z,30.20
2019-03-18T06:15:35.439Z,30.40
2019-03-18T06:16:14.251Z,29.90
2019-03-18T06:16:53.303Z,29.37
2019-03-18T06:17:32.432Z,30.13
2019-03-18T06:18:11.626Z,30.37
2019-03-18T06:18:50.862Z,29.30
2019-03-18T06:19:30.177Z,30.40
2019-03-18T06:20:09.473Z,29.60
2019-03-18T06:20:47.920Z,32.10
2019-03-18T06:21:26.509Z,29.50
2019-03-18T06:22:05.419Z,30.10
2019-03-18T06:22:44.279Z,29.60
2019-03-18T06:23:23.583Z,29.40
2019-03-18T06:24:02.912Z,31.33
2019-03-18T06:24:42.295Z,29.40
2019-03-18T06:25:21.314Z,30.40
2019-03-18T06:26:00.251Z,30.67
2019-03-18T06:26:39.407Z,30.33
2019-03-18T06:27:18.264Z,29.40
2019-03-18T06:27:59.374Z,30.97
2019-03-18T06:28:37.881Z,31.77
2019-03-18T06:29:16.382Z,31.80
2019-03-18T06:29:55.407Z,30.60
2019-03-18T06:30:34.454Z,29.90
2019-03-18T06:31:13.451Z,30.73
2019-03-18T06:31:52.784Z,31.43
2019-03-18T06:32:32.311Z,30.83
2019-03-18T06:33:17.178Z,30.37
2019-03-18T06:33:56.226Z,29.83
2019-03-18T06:34:46.155Z,29.73
2019-03-18T06:35:25.449Z,32.03
2019-03-18T06:36:22.616Z,31.20
2019-03-18T06:37:01.875Z,31.00
2019-03-18T06:37:41.445Z,30.73
2019-03-18T06:38:20.501Z,29.90
2019-03-18T06:38:59.030Z,30.47
2019-03-18T06:39:37.651Z,31.40
2019-03-18T06:40:16.376Z,30.80
2019-03-18T06:40:55.477Z,30.17
2019-03-18T06:41:34.527Z,32.20
2019-03-18T06:42:13.464Z,29.97
2019-03-18T06:42:52.578Z,30.80
2019-03-18T06:43:31.974Z,31.43
2019-03-18T06:44:11.301Z,31.27
2019-03-18T06:44:50.113Z,31.10
2019-03-18T06:45:29.190Z,32.57
2019-03-18T06:46:07.732Z,30.57
2019-03-18T06:46:46.576Z,30.63
2019-03-18T06:47:25.821Z,30.20
2019-03-18T06:48:05.548Z,32.20
2019-03-18T06:48:44.931Z,32.07
2019-03-18T06:49:24.031Z,32.60
2019-03-18T06:50:03.073Z,32.80
2019-03-18T06:50:42.305Z,31.30
2019-03-18T06:51:21.460Z,30.23
2019-03-18T06:52:01.102Z,31.83
2019-03-18T06:52:39.653Z,32.00
2019-03-18T06:53:18.183Z,30.17
2019-03-18T06:53:57.670Z,30.53
2019-03-18T06:54:36.145Z,29.90
2019-03-18T06:55:14.947Z,29.20
2019-03-18T06:55:54.105Z,30.40
2019-03-18T06:56:32.616Z,31.60
2019-03-18T06:57:11.475Z,30.90
2019-03-18T06:57:49.932Z,29.87
2019-03-18T06:58:28.638Z,31.70
2019-03-18T06:59:07.375Z,30.10
2019-03-18T06:59:46.627Z,31.57
2019-03-18T07:00:25.622Z,31.70
2019-03-18T07:01:04.764Z,31.10
2019-03-18T07:01:43.906Z,30.40
2019-03-18T07:02:23.179Z,30.50
2019-03-18T07:03:01.756Z,30.50
2019-03-18T07:03:40.255Z,29.13
2019-03-18T07:04:19.062Z,30.73
2019-03-18T07:04:58.132Z,30.23
2019-03-18T07:05:36.608Z,31.27
2019-03-18T07:06:15.695Z,30.97
2019-03-18T07:06:54.750Z,30.87
2019-03-18T07:07:33.979Z,29.40
2019-03-18T07:08:13.711Z,32.23
2019-03-18T07:08:52.257Z,30.53
2019-03-18T07:09:30.719Z,29.93
2019-03-18T07:10:09.835Z,31.70
2019-03-18T07:10:49.070Z,30.80
2019-03-18T07:11:28.551Z,31.57
2019-03-18T07:12:07.049Z,30.80
2019-03-18T07:12:46.940Z,30.73
2019-03-18T07:13:25.926Z,32.03
2019-03-18T07:14:04.497Z,30.07
2019-03-18T07:14:43.213Z,29.53
2019-03-18T07:15:21.679Z,30.67
2019-03-18T07:16:00.329Z,30.00
2019-03-18T07:16:39.065Z,30.13
2019-03-18T07:17:18.219Z,29.73
2019-03-18T07:17:57.442Z,29.30
2019-03-18T07:18:36.037Z,29.83
2019-03-18T07:19:15.220Z,29.90
2019-03-18T07:19:54.831Z,28.60
2019-03-18T07:20:33.753Z,31.03
2019-03-18T07:21:14.573Z,30.20
2019-03-18T07:21:52.291Z,29.50
2019-03-18T07:22:30.938Z,29.17
2019-03-18T07:23:09.784Z,29.00
2019-03-18T07:23:48.857Z,30.70
2019-03-18T07:24:27.830Z,29.50
2019-03-18T07:25:06.718Z,28.70
2019-03-18T07:25:45.679Z,30.80
2019-03-18T07:26:24.193Z,30.03
2019-03-18T07:27:02.663Z,29.20
2019-03-18T07:27:41.153Z,29.57
2019-03-18T07:28:20.340Z,29.50
2019-03-18T07:29:00.576Z,30.40
2019-03-18T07:29:39.159Z,27.33
2019-03-18T07:30:18.135Z,29.13
2019-03-18T07:30:57.674Z,29.10
2019-03-18T07:31:36.843Z,29.67
2019-03-18T07:32:16.347Z,31.17
2019-03-18T07:32:55.361Z,30.30
2019-03-18T07:33:33.825Z,29.83
2019-03-18T07:34:12.387Z,30.67
2019-03-18T07:34:51.245Z,29.53
2019-03-18T07:35:30.577Z,30.10
2019-03-18T07:36:09.958Z,27.60
2019-03-18T07:36:49.010Z,30.90
2019-03-18T07:37:27.763Z,30.00
2019-03-18T07:38:06.922Z,30.07
2019-03-18T07:38:45.940Z,29.50
2019-03-18T07:39:24.433Z,30.10
2019-03-18T07:40:02.909Z,29.17
2019-03-18T07:40:41.484Z,29.93
2019-03-18T07:41:20.584Z,29.20
2019-03-18T07:41:59.965Z,29.80
2019-03-18T07:42:39.267Z,30.97
2019-03-18T07:43:17.753Z,29.20
2019-03-18T07:43:56.473Z,28.67
2019-03-18T07:44:35.023Z,29.07
2019-03-18T07:45:15.745Z,28.77
2019-03-18T07:45:54.383Z,29.13
2019-03-18T07:46:32.999Z,28.43
2019-03-18T07:47:11.669Z,29.50
2019-03-18T07:47:51.116Z,28.20
2019-03-18T07:48:31.479Z,28.30
2019-03-18T07:49:10.601Z,29.67
2019-03-18T07:49:50.113Z,27.67
2019-03-18T07:50:29.198Z,28.87
2019-03-18T07:51:08.248Z,27.50
2019-03-18T07:51:47.612Z,29.17
2019-03-18T07:52:26.113Z,30.10
2019-03-18T07:53:05.176Z,29.30
2019-03-18T07:53:43.628Z,30.07
2019-03-18T07:54:32.306Z,28.20
2019-03-18T07:55:02.540Z,28.10
2019-03-18T07:55:41.338Z,27.93
2019-03-18T07:56:20.564Z,28.43
2019-03-18T07:56:59.849Z,29.00
2019-03-18T07:57:38.891Z,28.50
2019-03-18T07:58:17.696Z,28.63
2019-03-18T07:58:56.245Z,28.07
2019-03-18T07:59:34.697Z,27.63
2019-03-18T08:00:13.899Z,27.80
2019-03-18T08:00:53.006Z,28.47
2019-03-18T08:01:32.490Z,29.90
2019-03-18T08:02:11.650Z,28.83
2019-03-18T08:02:50.359Z,27.37
2019-03-18T08:03:29.894Z,27.57
2019-03-18T08:04:08.357Z,28.90
2019-03-18T08:04:46.796Z,27.17
2019-03-18T08:05:25.312Z,28.47
2019-03-18T08:06:03.908Z,28.93
2019-03-18T08:06:42.844Z,29.37
2019-03-18T08:07:22.384Z,28.60
2019-03-18T08:08:01.858Z,29.33
2019-03-18T08:08:40.952Z,27.20
2019-03-18T08:09:20.245Z,27.40
2019-03-18T08:09:59.222Z,27.60
2019-03-18T08:10:38.244Z,27.50
2019-03-18T08:11:16.732Z,29.30
2019-03-18T08:11:55.192Z,27.70
2019-03-18T08:12:33.661Z,28.27
2019-03-18T08:13:12.665Z,27.30
2019-03-18T08:13:51.985Z,28.10
2019-03-18T08:14:31.217Z,28.03
2019-03-18T08:15:10.557Z,28.80
2019-03-18T08:15:49.709Z,29.07
2019-03-18T08:16:29.797Z,27.90
2019-03-18T08:17:10.256Z,27.50
2019-03-18T08:17:49.779Z,27.90
2019-03-18T08:18:29.110Z,27.83
2019-03-18T08:19:07.876Z,27.97
2019-03-18T08:19:47.003Z,28.00
2019-03-18T08:20:26.497Z,26.30
2019-03-18T08:21:05.137Z,27.20
2019-03-18T08:21:48.317Z,27.20
2019-03-18T08:22:28.031Z,27.40
2019-03-18T08:23:06.632Z,26.10
2019-03-18T08:23:45.781Z,26.80
2019-03-18T08:24:24.473Z,27.50